Time;durP1;ratioP1;P1;durP2;ratioP2;P2;SDS_P1;SDS_P2;PMS_P1;PMS_P2;Temp;Humidity;BMP_temperature;BMP_pressure;BME280_temperature;BME280_humidity;BME280_pressure;Samples;Min_cycle;Max_cycle;Signal;HPM_P1;HPM_P2
2023/04/09 00:01:03;;;;;;;23.17;19.60;;;10.60;99.90;;;;;;5025903;28;20221;-40
2023/04/09 00:03:30;;;;;;;24.33;20.47;;;10.60;99.90;;;;;;5025643;28;20209;-40
2023/04/09 00:06:00;;;;;;;25.43;20.00;;;10.60;99.90;;;;;;5027495;28;20219;-40
2023/04/09 00:08:27;;;;;;;22.70;19.30;;;10.60;99.90;;;;;;5026587;28;20267;-40
2023/04/09 00:11:01;;;;;;;24.33;20.80;;;10.60;99.90;;;;;;5025516;28;20657;-40
2023/04/09 00:13:31;;;;;;;23.00;19.37;;;10.50;99.90;;;;;;5026842;28;20617;-40
2023/04/09 00:16:07;;;;;;;23.33;18.73;;;10.50;99.90;;;;;;5027065;28;20205;-40
2023/04/09 00:18:35;;;;;;;26.13;20.57;;;10.50;99.90;;;;;;5025491;28;20224;-40
2023/04/09 00:21:02;;;;;;;23.33;19.47;;;10.40;99.90;;;;;;5027171;28;20659;-40
2023/04/09 00:23:29;;;;;;;24.00;19.63;;;10.40;99.90;;;;;;5026405;28;20209;-39
2023/04/09 00:25:56;;;;;;;25.10;19.97;;;10.40;99.90;;;;;;5027412;28;20217;-40
2023/04/09 00:28:26;;;;;;;24.60;20.53;;;10.30;99.90;;;;;;5025219;28;20205;-40
2023/04/09 00:30:53;;;;;;;23.70;20.33;;;10.30;99.90;;;;;;5025286;28;20284;-40
2023/04/09 00:33:22;;;;;;;25.40;20.17;;;10.20;99.90;;;;;;5025382;28;20197;-40
2023/04/09 00:35:52;;;;;;;23.73;20.03;;;10.20;99.90;;;;;;5026798;28;20699;-40
2023/04/09 00:38:21;;;;;;;24.07;19.60;;;10.10;99.90;;;;;;5027047;28;20202;-40
2023/04/09 00:40:51;;;;;;;29.83;20.93;;;10.10;99.90;;;;;;5024529;28;20207;-39
2023/04/09 00:43:22;;;;;;;23.83;19.43;;;10.10;99.90;;;;;;5026879;28;20216;-40
2023/04/09 00:45:50;;;;;;;24.47;20.50;;;10.10;99.90;;;;;;5026315;28;20208;-43
2023/04/09 00:48:17;;;;;;;23.40;19.50;;;10.00;99.90;;;;;;5026388;28;20207;-40
2023/04/09 00:50:51;;;;;;;26.83;20.77;;;10.00;99.90;;;;;;5026233;28;20205;-40
2023/04/09 00:53:24;;;;;;;25.20;20.10;;;10.00;99.90;;;;;;5024937;28;20197;-40
2023/04/09 00:55:53;;;;;;;25.77;19.60;;;9.90;99.90;;;;;;5025813;28;20286;-40
2023/04/09 00:58:23;;;;;;;25.43;20.27;;;9.90;99.90;;;;;;5027699;28;20316;-39
2023/04/09 01:00:56;;;;;;;24.27;19.80;;;9.90;99.90;;;;;;5044486;28;20653;-40
2023/04/09 01:03:26;;;;;;;26.70;20.90;;;9.80;99.90;;;;;;5041778;28;20625;-40
2023/04/09 01:06:00;;;;;;;26.90;20.27;;;9.80;99.90;;;;;;5024087;28;20205;-39
2023/04/09 01:08:30;;;;;;;25.80;20.33;;;9.80;99.90;;;;;;5038970;28;20672;-40
2023/04/09 01:11:19;;;;;;;27.33;21.03;;;9.70;99.90;;;;;;5025183;28;20212;-40
2023/04/09 01:14:06;;;;;;;27.77;20.67;;;9.70;99.90;;;;;;5023955;28;20386;-41
2023/04/09 01:16:36;;;;;;;24.70;20.23;;;9.70;99.90;;;;;;5039482;28;20204;-40
2023/04/09 01:19:15;;;;;;;25.63;20.13;;;9.60;99.90;;;;;;5023988;28;20610;-40
2023/04/09 01:21:44;;;;;;;30.07;22.03;;;9.60;99.90;;;;;;5024088;28;20322;-40
2023/04/09 01:24:34;;;;;;;29.00;20.80;;;9.60;99.90;;;;;;5011988;28;20276;-40
2023/04/09 01:27:07;;;;;;;29.23;21.57;;;9.50;99.90;;;;;;5023637;28;20312;-40
2023/04/09 01:29:44;;;;;;;28.23;21.13;;;9.50;99.90;;;;;;5024048;28;20197;-39
2023/04/09 01:32:12;;;;;;;29.87;22.30;;;9.50;99.90;;;;;;5022818;28;20213;-40
2023/04/09 01:34:46;;;;;;;28.53;21.90;;;9.50;99.90;;;;;;5023430;28;20201;-34
2023/04/09 01:37:17;;;;;;;25.83;20.67;;;9.50;99.90;;;;;;5024176;28;20757;-33
2023/04/09 01:39:49;;;;;;;27.50;21.63;;;9.50;99.90;;;;;;5022974;28;20213;-34
2023/04/09 01:42:21;;;;;;;29.93;22.10;;;9.50;99.90;;;;;;5025288;28;20204;-33
2023/04/09 01:44:52;;;;;;;30.20;22.07;;;9.50;99.90;;;;;;5025406;28;20235;-33
2023/04/09 01:47:22;;;;;;;28.50;23.23;;;9.50;99.90;;;;;;5008055;28;20228;-34
2023/04/09 01:49:56;;;;;;;28.27;21.73;;;9.50;99.90;;;;;;5023511;28;20688;-34
2023/04/09 01:52:26;;;;;;;29.83;22.57;;;9.50;99.90;;;;;;5023574;28;20208;-33
2023/04/09 01:54:53;;;;;;;32.57;23.23;;;9.40;99.90;;;;;;5023829;28;20323;-34
2023/04/09 01:57:20;;;;;;;28.63;21.97;;;9.40;99.90;;;;;;5023530;28;20244;-34
2023/04/09 01:59:47;;;;;;;30.73;23.33;;;9.40;99.90;;;;;;5024768;28;20682;-34
2023/04/09 02:02:24;;;;;;;29.67;22.90;;;9.40;99.90;;;;;;5025161;28;20209;-33
2023/04/09 02:04:55;;;;;;;34.30;23.63;;;9.40;99.90;;;;;;5022917;28;20650;-34
2023/04/09 02:07:49;;;;;;;34.23;24.40;;;9.40;99.90;;;;;;5023408;28;20224;-34
2023/04/09 02:10:23;;;;;;;34.57;25.40;;;9.40;99.90;;;;;;5024029;28;20680;-33
2023/04/09 02:12:55;;;;;;;34.67;25.50;;;9.40;99.90;;;;;;5023227;28;20270;-34
2023/04/09 02:15:23;;;;;;;35.90;25.17;;;9.30;99.90;;;;;;5024658;28;20197;-34
2023/04/09 02:17:52;;;;;;;34.07;24.93;;;9.40;99.90;;;;;;5025168;28;20640;-34
2023/04/09 02:20:24;;;;;;;36.67;26.47;;;9.40;99.90;;;;;;5024519;28;20303;-34
2023/04/09 02:22:51;;;;;;;35.97;26.70;;;9.40;99.90;;;;;;5023195;28;20205;-34
2023/04/09 02:25:23;;;;;;;33.53;25.77;;;9.40;99.90;;;;;;5023659;28;20318;-33
2023/04/09 02:27:50;;;;;;;32.53;25.07;;;9.50;99.90;;;;;;5024853;28;20755;-34
2023/04/09 02:30:18;;;;;;;31.40;24.93;;;9.40;99.90;;;;;;5024012;28;20676;-34
2023/04/09 02:32:47;;;;;;;33.93;25.50;;;9.40;99.90;;;;;;5025166;28;20212;-33
2023/04/09 02:35:14;;;;;;;34.00;26.57;;;9.40;99.90;;;;;;5022459;28;20296;-34
2023/04/09 02:37:44;;;;;;;34.73;25.60;;;9.40;99.90;;;;;;5024666;28;20684;-34
2023/04/09 02:40:13;;;;;;;34.67;24.60;;;9.40;99.90;;;;;;5023263;28;20304;-33
2023/04/09 02:42:42;;;;;;;36.53;26.63;;;9.40;99.90;;;;;;5022744;28;20892;-34
2023/04/09 02:45:12;;;;;;;32.80;25.27;;;9.40;99.90;;;;;;5024229;28;20212;-34
2023/04/09 02:47:39;;;;;;;36.93;26.53;;;9.30;99.90;;;;;;5024170;28;20598;-33
2023/04/09 02:50:09;;;;;;;35.60;26.50;;;9.30;99.90;;;;;;5005878;28;20217;-34
2023/04/09 02:52:36;;;;;;;34.70;26.73;;;9.30;99.90;;;;;;5022830;28;20271;-34
2023/04/09 02:55:07;;;;;;;37.73;27.57;;;9.20;99.90;;;;;;5021462;28;20225;-33
2023/04/09 02:57:38;;;;;;;43.13;29.67;;;9.20;99.90;;;;;;5022483;28;20298;-34
2023/04/09 03:00:09;;;;;;;38.63;29.57;;;9.20;99.90;;;;;;5023871;28;20543;-33
2023/04/09 03:02:36;;;;;;;39.40;28.17;;;9.20;99.90;;;;;;5022590;28;20208;-33
2023/04/09 03:05:04;;;;;;;41.47;28.90;;;9.10;99.90;;;;;;5022344;28;20204;-33
2023/04/09 03:07:33;;;;;;;40.07;28.63;;;9.10;99.90;;;;;;5022166;28;20244;-34
2023/04/09 03:10:03;;;;;;;41.90;29.60;;;9.10;99.90;;;;;;5023397;28;20323;-34
2023/04/09 03:12:32;;;;;;;45.90;31.47;;;9.00;99.90;;;;;;5023961;28;20209;-34
2023/04/09 03:14:59;;;;;;;42.50;30.63;;;9.00;99.90;;;;;;5022745;28;20271;-33
2023/04/09 03:17:30;;;;;;;44.47;30.60;;;9.00;99.90;;;;;;5024261;28;20231;-33
2023/04/09 03:19:58;;;;;;;41.17;29.30;;;9.00;99.90;;;;;;5022279;28;20211;-33
2023/04/09 03:22:30;;;;;;;41.27;29.97;;;8.90;99.90;;;;;;5022469;28;20294;-34
2023/04/09 03:24:57;;;;;;;41.87;30.47;;;8.90;99.90;;;;;;5021576;28;20521;-34
2023/04/09 03:27:30;;;;;;;43.07;31.20;;;8.90;99.90;;;;;;5024121;28;20274;-33
2023/04/09 03:30:02;;;;;;;42.00;29.93;;;8.90;99.90;;;;;;5024127;28;20250;-34
2023/04/09 03:32:32;;;;;;;41.10;28.80;;;8.90;99.90;;;;;;5021951;28;20226;-34
2023/04/09 03:34:59;;;;;;;38.43;28.23;;;8.90;99.90;;;;;;5023165;28;20667;-34
2023/04/09 03:37:26;;;;;;;38.93;29.00;;;8.90;99.90;;;;;;5021965;28;20212;-34
2023/04/09 03:39:58;;;;;;;40.67;28.03;;;8.80;99.90;;;;;;5022699;28;20203;-34
2023/04/09 03:42:28;;;;;;;39.40;29.07;;;8.90;99.90;;;;;;5021930;28;20253;-34
2023/04/09 03:45:00;;;;;;;41.47;29.97;;;8.80;99.90;;;;;;5021494;28;20236;-34
2023/04/09 03:47:32;;;;;;;43.07;30.83;;;8.90;99.90;;;;;;5023252;28;20220;-34
2023/04/09 03:49:59;;;;;;;46.53;33.37;;;8.80;99.90;;;;;;5021617;28;20223;-34
2023/04/09 03:52:29;;;;;;;46.27;32.83;;;8.80;99.90;;;;;;5023751;28;20197;-34
2023/04/09 03:54:56;;;;;;;42.73;30.30;;;8.90;99.90;;;;;;5022909;28;20261;-34
2023/04/09 03:57:23;;;;;;;46.13;32.60;;;8.90;99.90;;;;;;5021624;28;20711;-34
2023/04/09 03:59:50;;;;;;;42.90;30.47;;;8.90;99.90;;;;;;5023233;28;20204;-33
2023/04/09 04:02:19;;;;;;;43.03;31.47;;;8.90;99.90;;;;;;5023343;28;20208;-34
2023/04/09 04:04:47;;;;;;;42.47;30.23;;;8.90;99.90;;;;;;5021578;28;20298;-34
2023/04/09 04:07:19;;;;;;;45.07;31.77;;;8.90;99.90;;;;;;5023447;28;20711;-34
2023/04/09 04:09:48;;;;;;;49.47;34.63;;;8.90;99.90;;;;;;5021147;28;20789;-34
2023/04/09 04:12:15;;;;;;;50.63;35.67;;;8.80;99.90;;;;;;5023196;28;20596;-34
2023/04/09 04:14:42;;;;;;;53.40;36.40;;;8.80;99.90;;;;;;5021541;28;20279;-34
2023/04/09 04:17:12;;;;;;;50.70;36.33;;;8.80;99.90;;;;;;5021989;28;20327;-34
2023/04/09 04:19:42;;;;;;;51.90;34.60;;;8.70;99.90;;;;;;5021769;28;20770;-33
2023/04/09 04:22:11;;;;;;;51.20;36.30;;;8.70;99.90;;;;;;5021567;28;20205;-33
2023/04/09 04:24:41;;;;;;;53.23;37.37;;;8.70;99.90;;;;;;5022475;28;20205;-34
2023/04/09 04:27:10;;;;;;;53.47;36.23;;;8.70;99.90;;;;;;5024855;28;20834;-34
2023/04/09 04:29:44;;;;;;;52.53;34.93;;;8.70;99.90;;;;;;5026557;28;20287;-34
2023/04/09 04:32:14;;;;;;;53.20;37.33;;;8.70;99.90;;;;;;5025330;28;20639;-34
2023/04/09 04:34:48;;;;;;;52.87;35.93;;;8.70;99.90;;;;;;5026757;28;20294;-33
2023/04/09 04:37:18;;;;;;;50.70;36.47;;;8.70;99.90;;;;;;5026770;28;20267;-34
2023/04/09 04:39:47;;;;;;;52.63;36.93;;;8.70;99.90;;;;;;5026210;28;20197;-34
2023/04/09 04:42:17;;;;;;;52.13;34.90;;;8.70;99.90;;;;;;5027279;28;20205;-34
2023/04/09 04:44:46;;;;;;;52.07;34.50;;;8.70;99.90;;;;;;5025479;28;20417;-34
2023/04/09 04:47:18;;;;;;;48.93;33.67;;;8.60;99.90;;;;;;5026647;28;20315;-34
2023/04/09 04:49:47;;;;;;;48.00;34.00;;;8.60;99.90;;;;;;5026351;28;20205;-34
2023/04/09 04:52:19;;;;;;;49.30;33.77;;;8.60;99.90;;;;;;5026861;28;20672;-33
2023/04/09 04:54:46;;;;;;;44.47;30.93;;;8.60;99.90;;;;;;5025974;28;20264;-34
2023/04/09 04:57:15;;;;;;;46.67;32.70;;;8.50;99.90;;;;;;5026115;28;20640;-33
2023/04/09 04:59:49;;;;;;;45.07;31.03;;;8.50;99.90;;;;;;5026369;28;20201;-34
2023/04/09 05:02:18;;;;;;;46.60;32.57;;;8.50;99.90;;;;;;5025149;28;20228;-34
2023/04/09 05:04:50;;;;;;;46.13;32.57;;;8.50;99.90;;;;;;5012223;28;20659;-33
2023/04/09 05:07:17;;;;;;;48.90;32.50;;;8.40;99.90;;;;;;5046069;28;20327;-33
2023/04/09 05:09:49;;;;;;;49.20;33.47;;;8.40;99.90;;;;;;5031732;28;20211;-34
2023/04/09 05:12:21;;;;;;;44.37;32.30;;;8.40;99.90;;;;;;5044304;28;20243;-33
2023/04/09 05:14:51;;;;;;;48.27;33.17;;;8.40;99.90;;;;;;5044180;28;20711;-33
2023/04/09 05:17:23;;;;;;;49.13;34.20;;;8.40;99.90;;;;;;5031565;28;20220;-34
2023/04/09 05:19:52;;;;;;;51.87;34.97;;;8.30;99.90;;;;;;5027016;28;20204;-33
2023/04/09 05:22:23;;;;;;;47.40;33.50;;;8.40;99.90;;;;;;5045609;28;20757;-34
2023/04/09 05:24:58;;;;;;;54.23;36.90;;;8.40;99.90;;;;;;5043096;28;20212;-34
2023/04/09 05:27:27;;;;;;;54.43;36.87;;;8.40;99.90;;;;;;5046041;28;20216;-34
2023/04/09 05:29:54;;;;;;;59.17;37.77;;;8.40;99.90;;;;;;5044010;28;20208;-34
2023/04/09 05:32:21;;;;;;;59.07;39.77;;;8.40;99.90;;;;;;5045952;28;20287;-34
2023/04/09 05:34:51;;;;;;;55.10;38.30;;;8.40;99.90;;;;;;5043041;28;20207;-34
2023/04/09 05:37:18;;;;;;;57.70;40.53;;;8.50;99.90;;;;;;5043675;28;20243;-34
2023/04/09 05:39:45;;;;;;;60.73;40.70;;;8.50;99.90;;;;;;5027242;28;20297;-33
2023/04/09 05:42:12;;;;;;;57.67;39.43;;;8.50;99.90;;;;;;5029148;28;20774;-34
2023/04/09 05:44:42;;;;;;;60.43;40.07;;;8.60;99.90;;;;;;5035371;28;20228;-34
2023/04/09 05:47:14;;;;;;;57.80;39.27;;;8.60;99.90;;;;;;5032204;28;20219;-34
2023/04/09 05:49:46;;;;;;;57.47;38.83;;;8.60;99.90;;;;;;5040218;28;20266;-34
2023/04/09 05:52:15;;;;;;;59.67;40.73;;;8.70;99.90;;;;;;5035414;28;20204;-34
2023/04/09 05:54:45;;;;;;;58.47;39.93;;;8.70;99.90;;;;;;5027915;28;20237;-34
2023/04/09 05:57:12;;;;;;;55.80;38.70;;;8.70;99.90;;;;;;5035648;28;20296;-33
2023/04/09 05:59:39;;;;;;;57.20;38.60;;;8.70;99.90;;;;;;5040539;28;20200;-34
2023/04/09 06:02:09;;;;;;;58.07;38.80;;;8.80;99.90;;;;;;5047831;28;20291;-34
2023/04/09 06:04:36;;;;;;;59.90;39.90;;;8.80;99.90;;;;;;5043683;28;20681;-34
2023/04/09 06:07:06;;;;;;;54.87;37.90;;;8.80;99.90;;;;;;5045220;28;20327;-34
2023/04/09 06:09:37;;;;;;;57.57;40.03;;;8.90;99.90;;;;;;5038875;28;20216;-34
2023/04/09 06:12:09;;;;;;;61.00;41.10;;;8.90;99.90;;;;;;5042953;28;20643;-34
2023/04/09 06:14:38;;;;;;;57.27;38.60;;;8.90;99.90;;;;;;5045580;28;20249;-34
2023/04/09 06:17:06;;;;;;;53.20;36.70;;;9.00;99.90;;;;;;5045044;28;20679;-34
2023/04/09 06:19:35;;;;;;;56.40;39.00;;;9.00;99.90;;;;;;5039515;28;20742;-34
2023/04/09 06:22:05;;;;;;;54.03;38.80;;;9.00;99.90;;;;;;5035907;28;20640;-34
2023/04/09 06:24:34;;;;;;;57.63;38.83;;;9.10;99.90;;;;;;5024742;28;20205;-34
2023/04/09 06:27:01;;;;;;;56.83;38.00;;;9.10;99.90;;;;;;5025092;28;20232;-34
2023/04/09 06:29:31;;;;;;;58.30;39.50;;;9.10;99.90;;;;;;5024984;28;20920;-34
2023/04/09 06:31:58;;;;;;;56.73;38.90;;;9.20;99.90;;;;;;5036503;28;20231;-34
2023/04/09 06:34:25;;;;;;;54.30;38.50;;;9.20;99.90;;;;;;5021693;28;20687;-34
2023/04/09 06:36:52;;;;;;;53.10;37.40;;;9.30;99.90;;;;;;5026550;28;20220;-34
2023/04/09 06:39:19;;;;;;;54.30;38.40;;;9.30;99.90;;;;;;5029279;28;20205;-34
2023/04/09 06:41:49;;;;;;;57.60;39.13;;;9.30;99.90;;;;;;5020128;28;20777;-34
2023/04/09 06:44:20;;;;;;;53.93;37.27;;;9.40;99.90;;;;;;5027856;28;20254;-34
2023/04/09 06:46:47;;;;;;;52.97;38.27;;;9.40;99.90;;;;;;5025952;28;20212;-34
2023/04/09 06:49:15;;;;;;;52.80;37.77;;;9.40;99.90;;;;;;5027204;28;20289;-33
2023/04/09 06:51:42;;;;;;;51.60;36.87;;;9.40;99.90;;;;;;5026794;28;20751;-34
2023/04/09 06:54:09;;;;;;;51.97;37.60;;;9.40;99.90;;;;;;5026747;28;20201;-34
2023/04/09 06:56:37;;;;;;;52.80;36.00;;;9.50;99.90;;;;;;5032805;28;20268;-34
2023/04/09 06:59:04;;;;;;;54.07;38.13;;;9.50;99.90;;;;;;5035673;28;20208;-34
2023/04/09 07:01:31;;;;;;;49.57;37.07;;;9.50;99.90;;;;;;5032033;28;20564;-34
2023/04/09 07:04:01;;;;;;;54.80;38.67;;;9.60;99.90;;;;;;5021919;28;20201;-34
2023/04/09 07:06:30;;;;;;;55.93;37.50;;;9.60;99.90;;;;;;5039084;28;20254;-34
2023/04/09 07:08:58;;;;;;;53.40;36.17;;;9.60;99.90;;;;;;5031229;28;20633;-34
2023/04/09 07:11:25;;;;;;;50.90;34.80;;;9.70;99.90;;;;;;5027812;28;20436;-34
2023/04/09 07:13:59;;;;;;;51.30;34.93;;;9.70;99.90;;;;;;5043023;28;20208;-34
2023/04/09 07:16:26;;;;;;;50.13;36.70;;;9.70;99.90;;;;;;5024048;28;20344;-33
2023/04/09 07:18:58;;;;;;;50.33;36.10;;;9.80;99.90;;;;;;5031651;28;20208;-33
2023/04/09 07:21:27;;;;;;;49.50;36.37;;;9.80;99.90;;;;;;5026281;28;20212;-34
2023/04/09 07:23:56;;;;;;;48.67;34.90;;;9.90;99.90;;;;;;5021169;28;20203;-33
2023/04/09 07:26:28;;;;;;;50.90;35.20;;;9.90;99.90;;;;;;5023548;28;20207;-33
2023/04/09 07:28:55;;;;;;;50.57;35.27;;;10.00;99.90;;;;;;5027907;28;20232;-34
2023/04/09 07:31:23;;;;;;;52.53;35.97;;;10.00;99.90;;;;;;5025507;28;20205;-33
2023/04/09 07:33:54;;;;;;;52.30;35.13;;;10.10;99.90;;;;;;5026945;28;20201;-34
2023/04/09 07:36:22;;;;;;;49.97;34.07;;;10.10;99.90;;;;;;5022851;28;20239;-34
2023/04/09 07:38:49;;;;;;;49.50;34.57;;;10.20;99.90;;;;;;5036309;28;20209;-34
2023/04/09 07:41:22;;;;;;;48.50;34.57;;;10.20;99.90;;;;;;5033310;28;20220;-33
2023/04/09 07:43:52;;;;;;;51.77;34.70;;;10.30;99.90;;;;;;5023113;28;20259;-34
2023/04/09 07:46:20;;;;;;;52.07;35.63;;;10.40;99.90;;;;;;5031406;28;20711;-33
2023/04/09 07:48:50;;;;;;;45.80;32.83;;;10.40;99.90;;;;;;5044176;28;21082;-34
2023/04/09 07:51:25;;;;;;;46.73;33.97;;;10.50;99.90;;;;;;5027805;28;20296;-34
2023/04/09 07:53:57;;;;;;;48.73;33.03;;;10.50;99.90;;;;;;5024608;28;20201;-34
2023/04/09 07:56:26;;;;;;;49.10;33.00;;;10.60;99.90;;;;;;5030493;28;20330;-34
2023/04/09 07:58:53;;;;;;;45.80;32.10;;;10.70;99.90;;;;;;5022888;28;20208;-34
2023/04/09 08:01:24;;;;;;;47.10;33.07;;;10.70;99.90;;;;;;5036040;28;20236;-33
2023/04/09 08:03:52;;;;;;;46.57;33.70;;;10.80;99.90;;;;;;5047831;28;20212;-34
2023/04/09 08:06:27;;;;;;;44.80;31.50;;;10.80;99.90;;;;;;5032083;28;20208;-34
2023/04/09 08:08:56;;;;;;;48.87;33.60;;;10.90;99.90;;;;;;5045386;28;20668;-34
2023/04/09 08:11:29;;;;;;;47.93;32.83;;;11.00;99.90;;;;;;5026609;28;20209;-34
2023/04/09 08:14:00;;;;;;;48.13;32.77;;;11.00;99.90;;;;;;5025771;28;20255;-34
2023/04/09 08:16:29;;;;;;;47.20;32.47;;;11.10;99.90;;;;;;5038890;28;20213;-34
2023/04/09 08:19:03;;;;;;;46.47;32.33;;;11.20;99.90;;;;;;5026519;28;20574;-35
2023/04/09 08:21:33;;;;;;;47.67;32.53;;;11.30;99.90;;;;;;5026487;28;20196;-34
2023/04/09 08:24:05;;;;;;;44.33;31.00;;;11.30;99.90;;;;;;5038407;28;20209;-35
2023/04/09 08:26:35;;;;;;;40.63;28.73;;;11.40;99.90;;;;;;5044381;28;20300;-33
2023/04/09 08:29:03;;;;;;;46.70;32.30;;;11.50;99.90;;;;;;5033473;28;20228;-34
2023/04/09 08:31:30;;;;;;;42.63;30.10;;;11.50;99.90;;;;;;5042004;28;20196;-34
2023/04/09 08:33:57;;;;;;;44.47;29.47;;;11.60;99.90;;;;;;5037132;28;20224;-34
2023/04/09 08:36:27;;;;;;;45.70;30.37;;;11.70;99.90;;;;;;5047055;28;20208;-34
2023/04/09 08:38:55;;;;;;;39.60;27.70;;;11.70;99.90;;;;;;5042614;28;20224;-34
2023/04/09 08:41:27;;;;;;;39.80;29.80;;;11.80;99.90;;;;;;5043258;28;20227;-34
2023/04/09 08:43:59;;;;;;;41.93;29.73;;;11.80;99.90;;;;;;5027102;28;20204;-34
2023/04/09 08:46:27;;;;;;;37.57;27.83;;;11.90;99.90;;;;;;5034372;28;20262;-34
2023/04/09 08:49:00;;;;;;;39.10;27.00;;;12.00;99.90;;;;;;5031525;28;20217;-34
2023/04/09 08:51:30;;;;;;;38.30;28.23;;;12.00;99.90;;;;;;5042867;28;20274;-34
2023/04/09 08:54:04;;;;;;;38.13;26.50;;;12.10;99.90;;;;;;5033536;28;20216;-34
2023/04/09 08:56:34;;;;;;;38.63;27.33;;;12.10;99.90;;;;;;5041167;28;20236;-34
2023/04/09 08:59:01;;;;;;;37.53;27.03;;;12.20;99.90;;;;;;5026717;28;20328;-34
2023/04/09 09:01:33;;;;;;;36.23;26.50;;;12.30;99.90;;;;;;5027237;28;20205;-34
2023/04/09 09:04:06;;;;;;;40.20;27.00;;;12.30;99.90;;;;;;5036499;28;20732;-34
2023/04/09 09:06:38;;;;;;;38.03;27.67;;;12.40;99.90;;;;;;5037212;28;20212;-34
2023/04/09 09:09:08;;;;;;;35.70;25.27;;;12.40;99.90;;;;;;5026941;28;20339;-33
2023/04/09 09:11:44;;;;;;;39.40;26.60;;;12.40;99.90;;;;;;5035959;28;20216;-34
2023/04/09 09:14:19;;;;;;;36.83;26.67;;;12.50;99.90;;;;;;5025509;28;20679;-34
2023/04/09 09:16:54;;;;;;;32.83;25.83;;;12.60;99.90;;;;;;5030743;28;20655;-34
2023/04/09 09:19:25;;;;;;;35.30;24.93;;;12.60;99.90;;;;;;5043060;28;20219;-34
2023/04/09 09:21:56;;;;;;;35.20;25.33;;;12.70;99.90;;;;;;5045491;28;20227;-34
2023/04/09 09:24:23;;;;;;;35.03;25.53;;;12.70;99.90;;;;;;5025315;28;20428;-34
2023/04/09 09:26:54;;;;;;;37.47;26.97;;;12.80;99.90;;;;;;5025741;28;20961;-34
2023/04/09 09:29:24;;;;;;;33.50;25.37;;;12.80;99.90;;;;;;5038486;28;20804;-34
2023/04/09 09:31:55;;;;;;;37.83;27.27;;;12.90;99.90;;;;;;5026664;28;20232;-34
2023/04/09 09:34:24;;;;;;;39.00;27.37;;;12.90;99.90;;;;;;5024409;28;20212;-34
2023/04/09 09:36:53;;;;;;;35.47;24.80;;;12.90;99.90;;;;;;5027120;28;20197;-34
2023/04/09 09:39:21;;;;;;;35.60;26.80;;;13.00;99.90;;;;;;5033028;28;20319;-34
2023/04/09 09:42:06;;;;;;;32.13;24.23;;;13.10;99.90;;;;;;5044541;28;20228;-34
2023/04/09 09:44:33;;;;;;;35.37;25.77;;;13.20;99.90;;;;;;5043597;28;20266;-34
2023/04/09 09:47:02;;;;;;;37.77;27.07;;;13.20;99.90;;;;;;5037648;28;20204;-34
2023/04/09 09:49:34;;;;;;;37.90;26.20;;;13.30;99.90;;;;;;5032764;28;20224;-34
2023/04/09 09:52:06;;;;;;;37.10;26.33;;;13.30;99.90;;;;;;5024861;28;20263;-34
2023/04/09 09:54:44;;;;;;;33.87;25.17;;;13.40;99.90;;;;;;5023840;28;20299;-34
2023/04/09 09:57:15;;;;;;;32.93;24.70;;;13.40;99.90;;;;;;5038860;28;20293;-34
2023/04/09 10:00:08;;;;;;;36.53;25.73;;;13.50;99.90;;;;;;5034555;28;20570;-34
2023/04/09 10:02:52;;;;;;;33.73;25.47;;;13.60;99.90;;;;;;5045474;28;20567;-34
2023/04/09 10:05:23;;;;;;;38.47;27.23;;;13.60;99.90;;;;;;5042249;28;20200;-34
2023/04/09 10:07:56;;;;;;;35.87;26.93;;;13.60;99.90;;;;;;5043080;28;20775;-34
2023/04/09 10:10:28;;;;;;;35.57;24.63;;;13.60;99.90;;;;;;5017217;28;20221;-34
2023/04/09 10:12:58;;;;;;;31.47;24.87;;;13.70;99.90;;;;;;5044823;28;20741;-34
2023/04/09 10:15:30;;;;;;;27.57;21.93;;;13.70;99.90;;;;;;5030663;28;20197;-34
2023/04/09 10:17:57;;;;;;;28.07;21.43;;;13.80;99.90;;;;;;5037739;28;20931;-34
2023/04/09 10:20:50;;;;;;;31.03;24.03;;;13.90;99.90;;;;;;5024516;28;20343;-34
2023/04/09 10:23:49;;;;;;;34.70;24.90;;;13.90;99.90;;;;;;5030604;28;20240;-33
2023/04/09 10:26:20;;;;;;;30.47;23.93;;;13.90;99.90;;;;;;5043246;28;20204;-34
2023/04/09 10:29:07;;;;;;;28.50;21.90;;;14.00;99.90;;;;;;5041030;28;20213;-34
2023/04/09 10:32:07;;;;;;;29.47;23.23;;;14.10;99.90;;;;;;5031633;28;20213;-34
2023/04/09 10:34:40;;;;;;;30.60;23.13;;;14.20;99.90;;;;;;5062190;28;20294;-33
2023/04/09 10:37:12;;;;;;;29.10;21.90;;;14.30;99.90;;;;;;5053288;28;20217;-34
2023/04/09 10:39:43;;;;;;;33.63;24.40;;;14.40;99.90;;;;;;5033223;28;20232;-34
2023/04/09 10:42:20;;;;;;;34.00;24.80;;;14.50;99.90;;;;;;5025905;28;20435;-33
2023/04/09 10:45:03;;;;;;;26.37;20.93;;;14.70;99.90;;;;;;5031655;28;20204;-33
2023/04/09 10:47:32;;;;;;;30.87;22.57;;;14.80;99.90;;;;;;5032763;28;20676;-34
2023/04/09 10:50:17;;;;;;;32.90;24.57;;;14.80;99.90;;;;;;5034681;28;20243;-33
2023/04/09 10:52:55;;;;;;;35.33;25.13;;;14.90;99.90;;;;;;5028399;28;20227;-34
2023/04/09 10:55:43;;;;;;;32.90;23.50;;;15.00;99.90;;;;;;5032934;28;20240;-34
2023/04/09 10:58:18;;;;;;;27.20;21.20;;;15.10;99.90;;;;;;5024370;28;20488;-33
2023/04/09 11:00:49;;;;;;;29.97;22.57;;;15.20;99.90;;;;;;5004280;28;20201;-34
2023/04/09 11:03:26;;;;;;;31.30;23.97;;;15.30;99.90;;;;;;5036672;28;20218;-34
2023/04/09 11:06:01;;;;;;;27.13;21.70;;;15.30;99.90;;;;;;5032685;28;20204;-34
2023/04/09 11:08:32;;;;;;;27.43;21.60;;;15.40;99.90;;;;;;5032472;28;20235;-33
2023/04/09 11:11:01;;;;;;;32.97;23.60;;;15.50;99.90;;;;;;5027812;28;20238;-33
2023/04/09 11:13:29;;;;;;;31.23;23.47;;;15.60;99.90;;;;;;5038218;28;20235;-33
2023/04/09 11:15:59;;;;;;;29.83;22.33;;;15.70;99.90;;;;;;5042590;28;20258;-33
2023/04/09 11:18:28;;;;;;;30.13;22.57;;;15.70;99.90;;;;;;5029932;28;20320;-33
2023/04/09 11:21:02;;;;;;;28.83;21.37;;;15.80;99.90;;;;;;5023870;28;20351;-34
2023/04/09 11:23:31;;;;;;;24.70;18.77;;;15.80;99.90;;;;;;5023837;28;20711;-33
2023/04/09 11:26:01;;;;;;;31.07;22.17;;;15.90;99.90;;;;;;5023813;28;20231;-33
2023/04/09 11:28:31;;;;;;;24.27;18.85;;;16.00;99.90;;;;;;5023199;28;20201;-33
2023/04/09 11:30:58;;;;;;;27.80;21.13;;;16.00;99.90;;;;;;5022662;28;20233;-34
2023/04/09 11:33:33;;;;;;;27.58;20.92;;;16.10;99.90;;;;;;5023321;28;20223;-33
2023/04/09 11:36:03;;;;;;;29.13;20.83;;;16.10;99.90;;;;;;5022897;28;20193;-34
2023/04/09 11:38:33;;;;;;;25.70;20.77;;;16.10;99.90;;;;;;5023354;28;20251;-34
2023/04/09 11:41:02;;;;;;;24.55;19.00;;;16.10;99.90;;;;;;5028313;28;20294;-34
2023/04/09 11:43:30;;;;;;;21.45;17.10;;;16.10;99.90;;;;;;5022392;28;20625;-34
2023/04/09 11:45:58;;;;;;;25.15;19.30;;;16.20;99.90;;;;;;5024078;28;20282;-34
2023/04/09 11:48:29;;;;;;;23.73;19.50;;;16.30;99.90;;;;;;5023542;28;20262;-34
2023/04/09 11:50:59;;;;;;;23.67;18.77;;;16.40;99.90;;;;;;5025792;28;20312;-34
2023/04/09 11:53:29;;;;;;;20.05;17.13;;;16.50;99.90;;;;;;5022043;28;20244;-34
2023/04/09 11:56:01;;;;;;;22.08;17.88;;;16.60;99.90;;;;;;5023480;28;20236;-34
2023/04/09 11:58:28;;;;;;;22.95;19.02;;;16.70;99.90;;;;;;5023682;28;20688;-34
2023/04/09 12:00:58;;;;;;;21.58;17.58;;;16.70;99.90;;;;;;5027633;28;20278;-34
2023/04/09 12:03:36;;;;;;;22.03;17.23;;;16.80;99.90;;;;;;5021744;28;20236;-34
2023/04/09 12:06:09;;;;;;;21.77;17.83;;;16.90;99.90;;;;;;5022341;28;20715;-34
2023/04/09 12:08:37;;;;;;;20.10;16.13;;;16.90;99.90;;;;;;5024093;28;20196;-34
2023/04/09 12:11:14;;;;;;;20.63;16.65;;;17.00;99.90;;;;;;5021678;28;20815;-34
2023/04/09 12:13:44;;;;;;;20.70;16.50;;;17.00;99.90;;;;;;5040789;28;20211;-34
2023/04/09 12:16:12;;;;;;;20.33;15.45;;;17.00;99.90;;;;;;5043189;28;20270;-34
2023/04/09 12:18:40;;;;;;;19.07;15.90;;;17.10;99.90;;;;;;5033724;28;20308;-34
2023/04/09 12:21:09;;;;;;;17.55;14.60;;;17.10;99.90;;;;;;5021704;28;20209;-34
2023/04/09 12:23:37;;;;;;;19.33;14.10;;;17.20;99.90;;;;;;5016171;28;20215;-33
2023/04/09 12:26:07;;;;;;;18.63;15.55;;;17.20;99.90;;;;;;5023295;28;20215;-34
2023/04/09 12:28:34;;;;;;;19.70;15.65;;;17.30;99.90;;;;;;5035826;28;20729;-34
2023/04/09 12:31:02;;;;;;;20.67;15.27;;;17.30;99.90;;;;;;5023636;28;20937;-34
2023/04/09 12:33:32;;;;;;;18.05;14.55;;;17.30;99.90;;;;;;5006886;28;20255;-34
2023/04/09 12:36:00;;;;;;;16.17;13.35;;;17.30;99.90;;;;;;5040097;28;20717;-34
2023/04/09 12:38:34;;;;;;;35.65;14.82;;;17.30;99.90;;;;;;5035443;28;20307;-36
2023/04/09 12:41:01;;;;;;;18.10;12.57;;;17.40;99.90;;;;;;5031440;28;20527;-36
2023/04/09 12:43:28;;;;;;;14.07;11.40;;;17.50;99.90;;;;;;5032446;28;20705;-36
2023/04/09 12:45:56;;;;;;;14.30;12.55;;;17.50;99.90;;;;;;5023021;28;20661;-36
2023/04/09 12:48:26;;;;;;;16.67;13.80;;;17.60;99.90;;;;;;5027469;28;20735;-36
2023/04/09 12:50:53;;;;;;;14.32;12.25;;;17.60;99.90;;;;;;5026047;28;20273;-36